sensor_id;sensor_type;location;lat;lon;timestamp;P1;durP1;ratioP1;P2;durP2;ratioP2
20065;SDS011;10193;48.884;9.182;2022-09-20T00:00:35;1.80;;;1.70;;
20065;SDS011;10193;48.884;9.182;2022-09-20T00:03:02;2.10;;;1.90;;
20065;SDS011;10193;48.884;9.182;2022-09-20T00:05:29;3.70;;;2.20;;
20065;SDS011;10193;48.884;9.182;2022-09-20T00:07:59;1.67;;;1.58;;
20065;SDS011;10193;48.884;9.182;2022-09-20T00:10:26;2.72;;;1.58;;
20065;SDS011;10193;48.884;9.182;2022-09-20T00:12:53;1.80;;;1.70;;
20065;SDS011;10193;48.884;9.182;2022-09-20T00:15:20;3.70;;;1.80;;
20065;SDS011;10193;48.884;9.182;2022-09-20T00:17:48;3.80;;;2.00;;
20065;SDS011;10193;48.884;9.182;2022-09-20T00:20:15;1.30;;;1.30;;
20065;SDS011;10193;48.884;9.182;2022-09-20T00:22:42;3.90;;;1.80;;
20065;SDS011;10193;48.884;9.182;2022-09-20T00:25:08;1.48;;;1.38;;
20065;SDS011;10193;48.884;9.182;2022-09-20T00:27:35;2.75;;;1.55;;
20065;SDS011;10193;48.884;9.182;2022-09-20T00:30:02;1.55;;;1.42;;
20065;SDS011;10193;48.884;9.182;2022-09-20T00:32:29;1.60;;;1.50;;
20065;SDS011;10193;48.884;9.182;2022-09-20T00:34:57;5.18;;;1.60;;
20065;SDS011;10193;48.884;9.182;2022-09-20T00:37:32;1.65;;;1.55;;
20065;SDS011;10193;48.884;9.182;2022-09-20T00:39:59;2.47;;;1.70;;
20065;SDS011;10193;48.884;9.182;2022-09-20T00:42:26;2.05;;;1.70;;
20065;SDS011;10193;48.884;9.182;2022-09-20T00:44:55;2.85;;;1.60;;
20065;SDS011;10193;48.884;9.182;2022-09-20T00:50:13;1.83;;;1.45;;
20065;SDS011;10193;48.884;9.182;2022-09-20T00:52:50;2.17;;;1.50;;
20065;SDS011;10193;48.884;9.182;2022-09-20T00:55:23;2.92;;;1.35;;
20065;SDS011;10193;48.884;9.182;2022-09-20T00:57:51;1.33;;;1.10;;
20065;SDS011;10193;48.884;9.182;2022-09-20T01:00:18;1.70;;;1.50;;
20065;SDS011;10193;48.884;9.182;2022-09-20T01:02:47;1.70;;;1.40;;
20065;SDS011;10193;48.884;9.182;2022-09-20T01:05:18;2.45;;;1.40;;
20065;SDS011;10193;48.884;9.182;2022-09-20T01:07:46;2.55;;;1.52;;
20065;SDS011;10193;48.884;9.182;2022-09-20T01:10:15;2.65;;;1.30;;
20065;SDS011;10193;48.884;9.182;2022-09-20T01:12:42;2.35;;;1.20;;
20065;SDS011;10193;48.884;9.182;2022-09-20T01:15:11;1.48;;;1.20;;
20065;SDS011;10193;48.884;9.182;2022-09-20T01:17:41;1.38;;;1.20;;
20065;SDS011;10193;48.884;9.182;2022-09-20T01:20:13;3.25;;;1.35;;
20065;SDS011;10193;48.884;9.182;2022-09-20T01:22:49;1.85;;;1.33;;
20065;SDS011;10193;48.884;9.182;2022-09-20T01:25:28;2.17;;;1.23;;
20065;SDS011;10193;48.884;9.182;2022-09-20T01:28:12;1.65;;;1.02;;
20065;SDS011;10193;48.884;9.182;2022-09-20T01:30:40;1.60;;;1.50;;
20065;SDS011;10193;48.884;9.182;2022-09-20T01:33:13;1.38;;;1.17;;
20065;SDS011;10193;48.884;9.182;2022-09-20T01:35:47;2.38;;;1.20;;
20065;SDS011;10193;48.884;9.182;2022-09-20T01:38:20;1.35;;;1.25;;
20065;SDS011;10193;48.884;9.182;2022-09-20T01:40:57;1.77;;;1.23;;
20065;SDS011;10193;48.884;9.182;2022-09-20T01:43:33;1.40;;;1.20;;
20065;SDS011;10193;48.884;9.182;2022-09-20T01:46:04;1.45;;;1.20;;
20065;SDS011;10193;48.884;9.182;2022-09-20T01:48:40;1.98;;;1.35;;
20065;SDS011;10193;48.884;9.182;2022-09-20T01:57:40;1.20;;;0.98;;
20065;SDS011;10193;48.884;9.182;2022-09-20T02:00:28;2.15;;;1.30;;
20065;SDS011;10193;48.884;9.182;2022-09-20T02:03:06;1.17;;;1.05;;
20065;SDS011;10193;48.884;9.182;2022-09-20T02:08:57;4.05;;;1.83;;
20065;SDS011;10193;48.884;9.182;2022-09-20T02:11:43;1.38;;;1.27;;
20065;SDS011;10193;48.884;9.182;2022-09-20T02:14:28;2.65;;;1.48;;
20065;SDS011;10193;48.884;9.182;2022-09-20T02:17:03;4.78;;;1.50;;
20065;SDS011;10193;48.884;9.182;2022-09-20T02:19:48;1.50;;;1.08;;
20065;SDS011;10193;48.884;9.182;2022-09-20T02:22:43;1.35;;;1.20;;
20065;SDS011;10193;48.884;9.182;2022-09-20T02:25:24;1.52;;;1.23;;
20065;SDS011;10193;48.884;9.182;2022-09-20T02:28:04;1.30;;;1.10;;
20065;SDS011;10193;48.884;9.182;2022-09-20T02:30:43;2.13;;;1.25;;
20065;SDS011;10193;48.884;9.182;2022-09-20T02:33:25;2.55;;;1.10;;
20065;SDS011;10193;48.884;9.182;2022-09-20T02:36:08;2.28;;;1.10;;
20065;SDS011;10193;48.884;9.182;2022-09-20T02:38:49;2.00;;;1.35;;
20065;SDS011;10193;48.884;9.182;2022-09-20T02:44:25;3.03;;;1.27;;
20065;SDS011;10193;48.884;9.182;2022-09-20T02:47:05;2.35;;;1.23;;
20065;SDS011;10193;48.884;9.182;2022-09-20T02:49:41;1.83;;;1.38;;
20065;SDS011;10193;48.884;9.182;2022-09-20T02:52:22;1.80;;;1.20;;
20065;SDS011;10193;48.884;9.182;2022-09-20T02:54:56;2.17;;;1.50;;
20065;SDS011;10193;48.884;9.182;2022-09-20T02:57:30;3.20;;;1.00;;
20065;SDS011;10193;48.884;9.182;2022-09-20T03:00:08;2.28;;;1.40;;
20065;SDS011;10193;48.884;9.182;2022-09-20T03:02:44;2.22;;;1.30;;
20065;SDS011;10193;48.884;9.182;2022-09-20T03:05:21;2.55;;;1.63;;
20065;SDS011;10193;48.884;9.182;2022-09-20T03:08:01;2.53;;;1.23;;
20065;SDS011;10193;48.884;9.182;2022-09-20T03:10:38;1.83;;;1.40;;
20065;SDS011;10193;48.884;9.182;2022-09-20T03:13:14;2.88;;;1.42;;
20065;SDS011;10193;48.884;9.182;2022-09-20T03:15:51;2.55;;;1.20;;
20065;SDS011;10193;48.884;9.182;2022-09-20T03:18:28;2.67;;;1.42;;
20065;SDS011;10193;48.884;9.182;2022-09-20T03:21:04;2.75;;;1.35;;
20065;SDS011;10193;48.884;9.182;2022-09-20T03:23:43;2.45;;;1.42;;
20065;SDS011;10193;48.884;9.182;2022-09-20T03:26:22;1.75;;;1.30;;
20065;SDS011;10193;48.884;9.182;2022-09-20T03:28:58;2.10;;;1.27;;
20065;SDS011;10193;48.884;9.182;2022-09-20T03:31:33;2.30;;;1.20;;
20065;SDS011;10193;48.884;9.182;2022-09-20T03:34:14;1.70;;;1.20;;
20065;SDS011;10193;48.884;9.182;2022-09-20T03:36:55;1.30;;;1.20;;
20065;SDS011;10193;48.884;9.182;2022-09-20T03:39:47;1.45;;;1.15;;
20065;SDS011;10193;48.884;9.182;2022-09-20T03:42:36;1.20;;;1.10;;
20065;SDS011;10193;48.884;9.182;2022-09-20T03:45:26;1.63;;;1.27;;
20065;SDS011;10193;48.884;9.182;2022-09-20T03:48:09;1.85;;;1.10;;
20065;SDS011;10193;48.884;9.182;2022-09-20T03:51:03;2.65;;;1.35;;
20065;SDS011;10193;48.884;9.182;2022-09-20T03:53:58;1.30;;;1.10;;
20065;SDS011;10193;48.884;9.182;2022-09-20T04:00:04;3.10;;;1.30;;
20065;SDS011;10193;48.884;9.182;2022-09-20T04:02:52;3.60;;;1.58;;
20065;SDS011;10193;48.884;9.182;2022-09-20T04:05:40;2.28;;;1.50;;
20065;SDS011;10193;48.884;9.182;2022-09-20T04:08:21;1.40;;;1.30;;
20065;SDS011;10193;48.884;9.182;2022-09-20T04:11:01;1.90;;;1.27;;
20065;SDS011;10193;48.884;9.182;2022-09-20T04:13:35;1.88;;;1.60;;
20065;SDS011;10193;48.884;9.182;2022-09-20T04:16:08;1.90;;;1.40;;
20065;SDS011;10193;48.884;9.182;2022-09-20T04:18:44;3.08;;;1.50;;
20065;SDS011;10193;48.884;9.182;2022-09-20T04:21:18;2.60;;;1.67;;
20065;SDS011;10193;48.884;9.182;2022-09-20T04:23:52;2.10;;;1.27;;
20065;SDS011;10193;48.884;9.182;2022-09-20T04:26:26;3.58;;;1.70;;
20065;SDS011;10193;48.884;9.182;2022-09-20T04:28:57;1.65;;;1.40;;
20065;SDS011;10193;48.884;9.182;2022-09-20T04:31:32;2.33;;;1.50;;
20065;SDS011;10193;48.884;9.182;2022-09-20T04:34:11;2.00;;;1.60;;
20065;SDS011;10193;48.884;9.182;2022-09-20T04:36:56;7.05;;;1.83;;
20065;SDS011;10193;48.884;9.182;2022-09-20T04:39:27;2.63;;;1.70;;
20065;SDS011;10193;48.884;9.182;2022-09-20T04:42:08;2.60;;;1.65;;
20065;SDS011;10193;48.884;9.182;2022-09-20T04:51:34;3.63;;;1.70;;
20065;SDS011;10193;48.884;9.182;2022-09-20T04:54:44;2.22;;;1.50;;
20065;SDS011;10193;48.884;9.182;2022-09-20T04:57:41;2.22;;;1.58;;
20065;SDS011;10193;48.884;9.182;2022-09-20T05:00:23;2.13;;;1.42;;
20065;SDS011;10193;48.884;9.182;2022-09-20T05:03:19;2.17;;;1.55;;
20065;SDS011;10193;48.884;9.182;2022-09-20T05:06:18;2.70;;;1.92;;
20065;SDS011;10193;48.884;9.182;2022-09-20T05:09:02;2.85;;;1.50;;
20065;SDS011;10193;48.884;9.182;2022-09-20T05:11:54;1.88;;;1.52;;
20065;SDS011;10193;48.884;9.182;2022-09-20T05:14:53;2.35;;;1.77;;
20065;SDS011;10193;48.884;9.182;2022-09-20T05:17:35;2.38;;;1.83;;
20065;SDS011;10193;48.884;9.182;2022-09-20T05:20:25;2.42;;;1.65;;
20065;SDS011;10193;48.884;9.182;2022-09-20T05:23:22;1.80;;;1.52;;
20065;SDS011;10193;48.884;9.182;2022-09-20T05:26:08;3.05;;;1.73;;
20065;SDS011;10193;48.884;9.182;2022-09-20T05:28:43;3.47;;;1.77;;
20065;SDS011;10193;48.884;9.182;2022-09-20T05:31:20;2.05;;;1.60;;
20065;SDS011;10193;48.884;9.182;2022-09-20T05:33:56;1.67;;;1.45;;
20065;SDS011;10193;48.884;9.182;2022-09-20T05:36:31;1.95;;;1.50;;
20065;SDS011;10193;48.884;9.182;2022-09-20T05:39:08;3.90;;;1.67;;
20065;SDS011;10193;48.884;9.182;2022-09-20T05:41:44;3.53;;;1.67;;
20065;SDS011;10193;48.884;9.182;2022-09-20T05:44:22;2.65;;;1.70;;
20065;SDS011;10193;48.884;9.182;2022-09-20T05:46:59;2.50;;;1.50;;
20065;SDS011;10193;48.884;9.182;2022-09-20T05:49:36;1.92;;;1.60;;
20065;SDS011;10193;48.884;9.182;2022-09-20T05:52:15;3.22;;;1.90;;
20065;SDS011;10193;48.884;9.182;2022-09-20T05:55:00;2.00;;;1.80;;
20065;SDS011;10193;48.884;9.182;2022-09-20T05:57:44;2.20;;;1.77;;
20065;SDS011;10193;48.884;9.182;2022-09-20T06:00:34;3.22;;;2.00;;
20065;SDS011;10193;48.884;9.182;2022-09-20T06:03:09;2.08;;;1.85;;
20065;SDS011;10193;48.884;9.182;2022-09-20T06:05:45;2.42;;;1.65;;
20065;SDS011;10193;48.884;9.182;2022-09-20T06:08:31;2.17;;;1.58;;
20065;SDS011;10193;48.884;9.182;2022-09-20T06:14:11;3.47;;;1.85;;
20065;SDS011;10193;48.884;9.182;2022-09-20T06:16:47;4.55;;;1.63;;
20065;SDS011;10193;48.884;9.182;2022-09-20T06:19:21;3.50;;;1.88;;
20065;SDS011;10193;48.884;9.182;2022-09-20T06:21:56;2.65;;;1.58;;
20065;SDS011;10193;48.884;9.182;2022-09-20T06:24:31;2.42;;;1.90;;
20065;SDS011;10193;48.884;9.182;2022-09-20T06:27:03;1.95;;;1.80;;
20065;SDS011;10193;48.884;9.182;2022-09-20T06:29:35;2.38;;;1.85;;
20065;SDS011;10193;48.884;9.182;2022-09-20T06:32:05;2.85;;;1.90;;
20065;SDS011;10193;48.884;9.182;2022-09-20T06:34:34;3.35;;;2.08;;
20065;SDS011;10193;48.884;9.182;2022-09-20T06:37:05;2.53;;;2.03;;
20065;SDS011;10193;48.884;9.182;2022-09-20T06:40:01;4.53;;;1.95;;
20065;SDS011;10193;48.884;9.182;2022-09-20T06:42:49;2.40;;;1.77;;
20065;SDS011;10193;48.884;9.182;2022-09-20T06:45:17;3.00;;;1.73;;
20065;SDS011;10193;48.884;9.182;2022-09-20T06:47:43;2.58;;;2.00;;
20065;SDS011;10193;48.884;9.182;2022-09-20T06:50:14;2.17;;;2.00;;
20065;SDS011;10193;48.884;9.182;2022-09-20T06:52:42;2.50;;;1.90;;
20065;SDS011;10193;48.884;9.182;2022-09-20T06:55:10;3.38;;;1.75;;
20065;SDS011;10193;48.884;9.182;2022-09-20T06:57:44;4.93;;;1.70;;
20065;SDS011;10193;48.884;9.182;2022-09-20T07:00:12;3.30;;;1.90;;
20065;SDS011;10193;48.884;9.182;2022-09-20T07:02:40;2.47;;;2.00;;
20065;SDS011;10193;48.884;9.182;2022-09-20T07:05:10;4.15;;;2.13;;
20065;SDS011;10193;48.884;9.182;2022-09-20T07:07:40;2.60;;;2.00;;
20065;SDS011;10193;48.884;9.182;2022-09-20T07:10:08;3.72;;;1.98;;
20065;SDS011;10193;48.884;9.182;2022-09-20T07:12:35;3.40;;;1.90;;
20065;SDS011;10193;48.884;9.182;2022-09-20T07:15:02;2.67;;;1.85;;
20065;SDS011;10193;48.884;9.182;2022-09-20T07:17:30;3.28;;;1.80;;
20065;SDS011;10193;48.884;9.182;2022-09-20T07:19:57;3.95;;;2.03;;
20065;SDS011;10193;48.884;9.182;2022-09-20T07:22:25;2.85;;;2.03;;
20065;SDS011;10193;48.884;9.182;2022-09-20T07:24:53;3.55;;;2.55;;
20065;SDS011;10193;48.884;9.182;2022-09-20T07:27:20;2.83;;;2.10;;
20065;SDS011;10193;48.884;9.182;2022-09-20T07:29:46;3.45;;;2.42;;
20065;SDS011;10193;48.884;9.182;2022-09-20T07:32:13;3.95;;;2.30;;
20065;SDS011;10193;48.884;9.182;2022-09-20T07:34:41;4.65;;;2.35;;
20065;SDS011;10193;48.884;9.182;2022-09-20T07:37:08;4.80;;;2.50;;
20065;SDS011;10193;48.884;9.182;2022-09-20T07:39:35;2.67;;;2.00;;
20065;SDS011;10193;48.884;9.182;2022-09-20T07:42:03;4.05;;;2.17;;
20065;SDS011;10193;48.884;9.182;2022-09-20T07:44:31;4.93;;;2.40;;
20065;SDS011;10193;48.884;9.182;2022-09-20T07:46:58;2.60;;;2.00;;
20065;SDS011;10193;48.884;9.182;2022-09-20T07:49:26;2.70;;;2.25;;
20065;SDS011;10193;48.884;9.182;2022-09-20T07:51:54;2.13;;;1.83;;
20065;SDS011;10193;48.884;9.182;2022-09-20T07:54:21;3.60;;;1.90;;
20065;SDS011;10193;48.884;9.182;2022-09-20T07:56:48;2.65;;;2.10;;
20065;SDS011;10193;48.884;9.182;2022-09-20T07:59:16;2.38;;;1.92;;
20065;SDS011;10193;48.884;9.182;2022-09-20T08:01:43;3.83;;;2.50;;
20065;SDS011;10193;48.884;9.182;2022-09-20T08:04:10;3.65;;;2.30;;
20065;SDS011;10193;48.884;9.182;2022-09-20T08:06:38;4.28;;;2.38;;
20065;SDS011;10193;48.884;9.182;2022-09-20T08:09:06;3.35;;;2.00;;
20065;SDS011;10193;48.884;9.182;2022-09-20T08:11:34;4.10;;;2.28;;
20065;SDS011;10193;48.884;9.182;2022-09-20T08:14:02;2.75;;;1.85;;
20065;SDS011;10193;48.884;9.182;2022-09-20T08:16:31;3.58;;;2.13;;
20065;SDS011;10193;48.884;9.182;2022-09-20T08:19:01;2.90;;;2.33;;
20065;SDS011;10193;48.884;9.182;2022-09-20T08:21:29;3.03;;;2.30;;
20065;SDS011;10193;48.884;9.182;2022-09-20T08:23:58;3.38;;;2.30;;
20065;SDS011;10193;48.884;9.182;2022-09-20T08:26:25;3.78;;;2.20;;
20065;SDS011;10193;48.884;9.182;2022-09-20T08:28:55;4.13;;;1.90;;
20065;SDS011;10193;48.884;9.182;2022-09-20T08:31:23;3.60;;;1.90;;
20065;SDS011;10193;48.884;9.182;2022-09-20T08:33:52;3.40;;;2.30;;
20065;SDS011;10193;48.884;9.182;2022-09-20T08:36:20;3.30;;;1.75;;
20065;SDS011;10193;48.884;9.182;2022-09-20T08:38:48;3.17;;;2.00;;
20065;SDS011;10193;48.884;9.182;2022-09-20T08:41:16;3.20;;;1.83;;
20065;SDS011;10193;48.884;9.182;2022-09-20T08:43:47;4.30;;;2.25;;
20065;SDS011;10193;48.884;9.182;2022-09-20T08:46:17;4.35;;;2.03;;
20065;SDS011;10193;48.884;9.182;2022-09-20T08:48:49;4.25;;;1.60;;
20065;SDS011;10193;48.884;9.182;2022-09-20T08:51:18;2.95;;;1.67;;
20065;SDS011;10193;48.884;9.182;2022-09-20T08:53:48;4.00;;;1.45;;
20065;SDS011;10193;48.884;9.182;2022-09-20T08:56:17;3.33;;;1.65;;
20065;SDS011;10193;48.884;9.182;2022-09-20T08:58:45;3.80;;;2.00;;
20065;SDS011;10193;48.884;9.182;2022-09-20T09:01:13;3.47;;;1.45;;
20065;SDS011;10193;48.884;9.182;2022-09-20T09:03:45;2.75;;;1.50;;
20065;SDS011;10193;48.884;9.182;2022-09-20T09:06:15;2.40;;;1.60;;
20065;SDS011;10193;48.884;9.182;2022-09-20T09:08:46;4.03;;;1.58;;
20065;SDS011;10193;48.884;9.182;2022-09-20T09:11:18;1.60;;;1.23;;
20065;SDS011;10193;48.884;9.182;2022-09-20T09:13:48;4.35;;;1.75;;
20065;SDS011;10193;48.884;9.182;2022-09-20T09:16:19;4.03;;;1.80;;
20065;SDS011;10193;48.884;9.182;2022-09-20T09:18:49;3.42;;;1.80;;
20065;SDS011;10193;48.884;9.182;2022-09-20T09:21:20;3.13;;;1.65;;
20065;SDS011;10193;48.884;9.182;2022-09-20T09:23:49;2.55;;;1.60;;
20065;SDS011;10193;48.884;9.182;2022-09-20T09:26:19;1.55;;;1.25;;
20065;SDS011;10193;48.884;9.182;2022-09-20T09:31:40;2.55;;;1.50;;
20065;SDS011;10193;48.884;9.182;2022-09-20T09:34:21;6.32;;;2.08;;
20065;SDS011;10193;48.884;9.182;2022-09-20T09:36:53;2.08;;;1.30;;
20065;SDS011;10193;48.884;9.182;2022-09-20T09:39:22;1.85;;;1.42;;
20065;SDS011;10193;48.884;9.182;2022-09-20T09:41:52;2.35;;;1.48;;
20065;SDS011;10193;48.884;9.182;2022-09-20T09:44:21;3.80;;;1.58;;
20065;SDS011;10193;48.884;9.182;2022-09-20T09:46:49;2.63;;;1.55;;
20065;SDS011;10193;48.884;9.182;2022-09-20T09:49:18;3.22;;;1.25;;
20065;SDS011;10193;48.884;9.182;2022-09-20T09:52:02;3.42;;;1.30;;
20065;SDS011;10193;48.884;9.182;2022-09-20T09:54:31;3.30;;;1.58;;
20065;SDS011;10193;48.884;9.182;2022-09-20T09:57:04;3.42;;;1.40;;
20065;SDS011;10193;48.884;9.182;2022-09-20T09:59:56;2.95;;;1.38;;
20065;SDS011;10193;48.884;9.182;2022-09-20T10:02:44;3.65;;;1.40;;
20065;SDS011;10193;48.884;9.182;2022-09-20T10:05:35;3.00;;;1.55;;
20065;SDS011;10193;48.884;9.182;2022-09-20T10:08:14;2.78;;;1.40;;
20065;SDS011;10193;48.884;9.182;2022-09-20T10:10:52;1.83;;;1.35;;
20065;SDS011;10193;48.884;9.182;2022-09-20T10:13:30;4.57;;;1.80;;
20065;SDS011;10193;48.884;9.182;2022-09-20T10:16:03;2.20;;;1.65;;
20065;SDS011;10193;48.884;9.182;2022-09-20T10:18:39;1.50;;;1.33;;
20065;SDS011;10193;48.884;9.182;2022-09-20T10:21:17;1.50;;;1.20;;
20065;SDS011;10193;48.884;9.182;2022-09-20T10:23:58;2.90;;;1.33;;
20065;SDS011;10193;48.884;9.182;2022-09-20T10:26:40;3.28;;;1.50;;
20065;SDS011;10193;48.884;9.182;2022-09-20T10:29:17;3.67;;;1.20;;
20065;SDS011;10193;48.884;9.182;2022-09-20T10:31:54;3.28;;;1.13;;
20065;SDS011;10193;48.884;9.182;2022-09-20T10:34:36;1.50;;;1.10;;
20065;SDS011;10193;48.884;9.182;2022-09-20T10:37:14;3.05;;;1.33;;
20065;SDS011;10193;48.884;9.182;2022-09-20T10:39:51;1.33;;;1.00;;
20065;SDS011;10193;48.884;9.182;2022-09-20T10:42:29;2.75;;;1.30;;
20065;SDS011;10193;48.884;9.182;2022-09-20T10:45:22;2.75;;;1.60;;
20065;SDS011;10193;48.884;9.182;2022-09-20T10:47:55;3.20;;;1.40;;
20065;SDS011;10193;48.884;9.182;2022-09-20T10:50:29;3.15;;;1.52;;
20065;SDS011;10193;48.884;9.182;2022-09-20T10:53:09;2.60;;;1.38;;
20065;SDS011;10193;48.884;9.182;2022-09-20T10:55:53;2.17;;;1.17;;
20065;SDS011;10193;48.884;9.182;2022-09-20T10:58:30;2.83;;;1.70;;
20065;SDS011;10193;48.884;9.182;2022-09-20T11:01:19;2.35;;;1.05;;
20065;SDS011;10193;48.884;9.182;2022-09-20T11:04:04;2.78;;;1.52;;
20065;SDS011;10193;48.884;9.182;2022-09-20T11:06:49;3.58;;;1.55;;
20065;SDS011;10193;48.884;9.182;2022-09-20T11:09:29;3.92;;;1.48;;
20065;SDS011;10193;48.884;9.182;2022-09-20T11:12:02;1.65;;;1.45;;
20065;SDS011;10193;48.884;9.182;2022-09-20T11:14:37;2.22;;;1.38;;
20065;SDS011;10193;48.884;9.182;2022-09-20T11:17:11;2.88;;;1.48;;
20065;SDS011;10193;48.884;9.182;2022-09-20T11:19:45;2.40;;;1.17;;
20065;SDS011;10193;48.884;9.182;2022-09-20T11:22:17;1.55;;;1.00;;
20065;SDS011;10193;48.884;9.182;2022-09-20T11:24:49;3.47;;;1.48;;
20065;SDS011;10193;48.884;9.182;2022-09-20T11:27:21;1.38;;;1.00;;
20065;SDS011;10193;48.884;9.182;2022-09-20T11:29:55;2.97;;;1.23;;
20065;SDS011;10193;48.884;9.182;2022-09-20T11:32:29;1.73;;;1.50;;
20065;SDS011;10193;48.884;9.182;2022-09-20T11:35:02;1.75;;;1.23;;
20065;SDS011;10193;48.884;9.182;2022-09-20T11:37:41;1.75;;;1.38;;
20065;SDS011;10193;48.884;9.182;2022-09-20T11:40:13;1.48;;;1.20;;
20065;SDS011;10193;48.884;9.182;2022-09-20T11:42:51;1.90;;;1.20;;
20065;SDS011;10193;48.884;9.182;2022-09-20T11:45:20;2.17;;;1.08;;
20065;SDS011;10193;48.884;9.182;2022-09-20T11:47:48;2.45;;;1.20;;
20065;SDS011;10193;48.884;9.182;2022-09-20T11:50:40;1.75;;;0.93;;
20065;SDS011;10193;48.884;9.182;2022-09-20T11:53:25;1.38;;;1.13;;
20065;SDS011;10193;48.884;9.182;2022-09-20T11:56:04;1.20;;;1.10;;
20065;SDS011;10193;48.884;9.182;2022-09-20T11:58:43;2.60;;;1.17;;
20065;SDS011;10193;48.884;9.182;2022-09-20T12:01:13;2.70;;;1.35;;
20065;SDS011;10193;48.884;9.182;2022-09-20T12:03:42;2.05;;;1.10;;
20065;SDS011;10193;48.884;9.182;2022-09-20T12:06:20;1.45;;;1.13;;
20065;SDS011;10193;48.884;9.182;2022-09-20T12:08:52;2.42;;;1.17;;
20065;SDS011;10193;48.884;9.182;2022-09-20T12:11:25;1.48;;;1.17;;
20065;SDS011;10193;48.884;9.182;2022-09-20T12:13:57;1.10;;;1.00;;
20065;SDS011;10193;48.884;9.182;2022-09-20T12:16:36;2.38;;;1.20;;
20065;SDS011;10193;48.884;9.182;2022-09-20T12:19:05;2.22;;;1.23;;
20065;SDS011;10193;48.884;9.182;2022-09-20T12:24:30;1.63;;;1.15;;
20065;SDS011;10193;48.884;9.182;2022-09-20T12:26:58;2.38;;;1.20;;
20065;SDS011;10193;48.884;9.182;2022-09-20T12:32:33;1.35;;;1.05;;
20065;SDS011;10193;48.884;9.182;2022-09-20T12:38:30;2.05;;;1.30;;
20065;SDS011;10193;48.884;9.182;2022-09-20T12:41:08;2.47;;;1.30;;
20065;SDS011;10193;48.884;9.182;2022-09-20T12:43:46;1.40;;;1.30;;
20065;SDS011;10193;48.884;9.182;2022-09-20T12:46:25;1.83;;;1.10;;
20065;SDS011;10193;48.884;9.182;2022-09-20T12:49:11;1.75;;;1.23;;
20065;SDS011;10193;48.884;9.182;2022-09-20T12:52:00;1.73;;;1.05;;
20065;SDS011;10193;48.884;9.182;2022-09-20T12:54:49;2.35;;;1.20;;
20065;SDS011;10193;48.884;9.182;2022-09-20T12:57:22;1.48;;;1.15;;
20065;SDS011;10193;48.884;9.182;2022-09-20T12:59:56;3.05;;;1.50;;
20065;SDS011;10193;48.884;9.182;2022-09-20T13:02:54;4.30;;;1.63;;
20065;SDS011;10193;48.884;9.182;2022-09-20T13:05:29;2.95;;;2.00;;
20065;SDS011;10193;48.884;9.182;2022-09-20T13:07:57;2.28;;;1.40;;
20065;SDS011;10193;48.884;9.182;2022-09-20T13:10:32;2.10;;;1.40;;
20065;SDS011;10193;48.884;9.182;2022-09-20T13:13:10;2.30;;;1.42;;
20065;SDS011;10193;48.884;9.182;2022-09-20T13:15:45;1.58;;;1.40;;
20065;SDS011;10193;48.884;9.182;2022-09-20T13:18:15;2.13;;;1.40;;
20065;SDS011;10193;48.884;9.182;2022-09-20T13:20:43;2.00;;;1.23;;
20065;SDS011;10193;48.884;9.182;2022-09-20T13:23:15;1.85;;;1.15;;
20065;SDS011;10193;48.884;9.182;2022-09-20T13:25:45;1.48;;;1.30;;
20065;SDS011;10193;48.884;9.182;2022-09-20T13:28:24;3.85;;;1.35;;
20065;SDS011;10193;48.884;9.182;2022-09-20T13:33:43;1.33;;;1.05;;
20065;SDS011;10193;48.884;9.182;2022-09-20T13:36:09;1.95;;;1.17;;
20065;SDS011;10193;48.884;9.182;2022-09-20T13:38:36;2.22;;;1.20;;
20065;SDS011;10193;48.884;9.182;2022-09-20T13:41:04;2.08;;;1.38;;
20065;SDS011;10193;48.884;9.182;2022-09-20T13:43:35;1.52;;;1.38;;
20065;SDS011;10193;48.884;9.182;2022-09-20T13:46:06;2.17;;;1.15;;
20065;SDS011;10193;48.884;9.182;2022-09-20T13:48:34;2.67;;;1.50;;
20065;SDS011;10193;48.884;9.182;2022-09-20T13:51:02;1.77;;;1.45;;
20065;SDS011;10193;48.884;9.182;2022-09-20T13:53:29;2.28;;;1.80;;
20065;SDS011;10193;48.884;9.182;2022-09-20T13:55:56;4.47;;;1.38;;
20065;SDS011;10193;48.884;9.182;2022-09-20T13:58:24;2.42;;;1.30;;
20065;SDS011;10193;48.884;9.182;2022-09-20T14:00:55;3.10;;;1.48;;
20065;SDS011;10193;48.884;9.182;2022-09-20T14:03:24;2.42;;;1.60;;
20065;SDS011;10193;48.884;9.182;2022-09-20T14:05:52;2.00;;;1.30;;
20065;SDS011;10193;48.884;9.182;2022-09-20T14:08:23;1.85;;;1.45;;
20065;SDS011;10193;48.884;9.182;2022-09-20T14:11:01;2.35;;;1.42;;
20065;SDS011;10193;48.884;9.182;2022-09-20T14:13:30;3.05;;;1.50;;
20065;SDS011;10193;48.884;9.182;2022-09-20T14:16:02;1.48;;;1.20;;
20065;SDS011;10193;48.884;9.182;2022-09-20T14:18:30;1.50;;;1.30;;
20065;SDS011;10193;48.884;9.182;2022-09-20T14:20:59;2.53;;;1.58;;
20065;SDS011;10193;48.884;9.182;2022-09-20T14:23:28;1.55;;;1.45;;
20065;SDS011;10193;48.884;9.182;2022-09-20T14:26:05;1.85;;;1.27;;
20065;SDS011;10193;48.884;9.182;2022-09-20T14:28:32;1.58;;;1.45;;
20065;SDS011;10193;48.884;9.182;2022-09-20T14:31:03;3.75;;;1.40;;
20065;SDS011;10193;48.884;9.182;2022-09-20T14:33:32;2.95;;;1.45;;
20065;SDS011;10193;48.884;9.182;2022-09-20T14:36:09;1.67;;;1.20;;
20065;SDS011;10193;48.884;9.182;2022-09-20T14:38:41;1.90;;;1.40;;
20065;SDS011;10193;48.884;9.182;2022-09-20T14:41:09;1.80;;;1.20;;
20065;SDS011;10193;48.884;9.182;2022-09-20T14:43:36;2.88;;;1.63;;
20065;SDS011;10193;48.884;9.182;2022-09-20T14:46:03;1.65;;;1.30;;
20065;SDS011;10193;48.884;9.182;2022-09-20T14:48:34;1.27;;;1.10;;
20065;SDS011;10193;48.884;9.182;2022-09-20T14:51:09;1.20;;;1.08;;
20065;SDS011;10193;48.884;9.182;2022-09-20T14:53:47;2.28;;;1.38;;
20065;SDS011;10193;48.884;9.182;2022-09-20T14:56:18;1.40;;;1.30;;
20065;SDS011;10193;48.884;9.182;2022-09-20T14:59:18;1.40;;;1.30;;
20065;SDS011;10193;48.884;9.182;2022-09-20T15:01:54;1.30;;;1.20;;
20065;SDS011;10193;48.884;9.182;2022-09-20T15:04:24;1.40;;;1.30;;
20065;SDS011;10193;48.884;9.182;2022-09-20T15:06:52;2.83;;;1.73;;
20065;SDS011;10193;48.884;9.182;2022-09-20T15:09:21;1.23;;;1.13;;
20065;SDS011;10193;48.884;9.182;2022-09-20T15:11:57;1.35;;;1.25;;
20065;SDS011;10193;48.884;9.182;2022-09-20T15:14:25;1.60;;;1.50;;
20065;SDS011;10193;48.884;9.182;2022-09-20T15:16:52;1.95;;;1.60;;
20065;SDS011;10193;48.884;9.182;2022-09-20T15:19:18;2.08;;;1.50;;
20065;SDS011;10193;48.884;9.182;2022-09-20T15:21:45;1.30;;;1.20;;
20065;SDS011;10193;48.884;9.182;2022-09-20T15:24:12;1.50;;;1.38;;
20065;SDS011;10193;48.884;9.182;2022-09-20T15:26:43;2.20;;;1.65;;
20065;SDS011;10193;48.884;9.182;2022-09-20T15:29:11;1.50;;;1.40;;
20065;SDS011;10193;48.884;9.182;2022-09-20T15:31:41;1.45;;;1.35;;
20065;SDS011;10193;48.884;9.182;2022-09-20T15:34:08;1.45;;;1.35;;
20065;SDS011;10193;48.884;9.182;2022-09-20T15:36:36;1.20;;;1.20;;
20065;SDS011;10193;48.884;9.182;2022-09-20T15:39:03;1.67;;;1.10;;
20065;SDS011;10193;48.884;9.182;2022-09-20T15:41:30;2.22;;;1.20;;
20065;SDS011;10193;48.884;9.182;2022-09-20T15:43:59;1.73;;;1.23;;
20065;SDS011;10193;48.884;9.182;2022-09-20T15:46:27;1.65;;;1.17;;
20065;SDS011;10193;48.884;9.182;2022-09-20T15:48:54;1.05;;;1.05;;
20065;SDS011;10193;48.884;9.182;2022-09-20T15:51:21;1.10;;;1.10;;
20065;SDS011;10193;48.884;9.182;2022-09-20T15:53:52;1.35;;;1.20;;
20065;SDS011;10193;48.884;9.182;2022-09-20T15:56:21;2.03;;;1.35;;
20065;SDS011;10193;48.884;9.182;2022-09-20T15:58:49;1.05;;;0.95;;
20065;SDS011;10193;48.884;9.182;2022-09-20T16:01:25;0.95;;;0.90;;
20065;SDS011;10193;48.884;9.182;2022-09-20T16:03:53;0.90;;;0.90;;
20065;SDS011;10193;48.884;9.182;2022-09-20T16:06:20;1.20;;;1.10;;
20065;SDS011;10193;48.884;9.182;2022-09-20T16:08:48;1.55;;;1.30;;
20065;SDS011;10193;48.884;9.182;2022-09-20T16:11:15;1.48;;;1.38;;
20065;SDS011;10193;48.884;9.182;2022-09-20T16:13:45;1.50;;;1.23;;